createdAt,value
2022-08-27T00:01:41.635Z,22.10
2022-08-27T00:04:44.732Z,22.08
2022-08-27T00:07:47.692Z,22.16
2022-08-27T00:10:50.565Z,22.28
2022-08-27T00:13:53.329Z,22.42
2022-08-27T00:16:57.370Z,22.53
2022-08-27T00:19:59.998Z,22.69
2022-08-27T00:23:02.838Z,22.75
2022-08-27T00:26:06.542Z,22.86
2022-08-27T00:29:09.555Z,22.86
2022-08-27T00:32:12.130Z,22.90
2022-08-27T00:35:16.247Z,22.82
2022-08-27T00:38:20.543Z,22.74
2022-08-27T00:41:23.637Z,22.64
2022-08-27T00:44:28.093Z,22.50
2022-08-27T00:47:32.176Z,22.42
2022-08-27T00:50:38.487Z,22.34
2022-08-27T00:53:41.398Z,22.30
2022-08-27T00:56:51.543Z,22.25
2022-08-27T00:59:54.825Z,22.23
2022-08-27T01:02:57.453Z,22.20
2022-08-27T01:06:02.081Z,22.25
2022-08-27T01:09:14.809Z,22.23
2022-08-27T01:12:18.231Z,22.21
2022-08-27T01:15:22.500Z,22.13
2022-08-27T01:18:30.209Z,22.05
2022-08-27T01:22:00.044Z,22.01
2022-08-27T01:25:07.845Z,21.90
2022-08-27T01:28:11.761Z,21.84
2022-08-27T01:31:15.020Z,21.84
2022-08-27T01:34:17.623Z,21.81
2022-08-27T01:37:23.990Z,21.74
2022-08-27T01:40:27.230Z,21.70
2022-08-27T01:43:31.421Z,21.63
2022-08-27T01:46:34.086Z,21.53
2022-08-27T01:49:37.242Z,21.44
2022-08-27T01:52:40.278Z,21.46
2022-08-27T01:55:47.691Z,21.37
2022-08-27T01:58:51.004Z,21.35
2022-08-27T02:01:54.765Z,21.27
2022-08-27T02:04:57.723Z,21.21
2022-08-27T02:08:00.451Z,21.19
2022-08-27T02:11:03.998Z,21.17
2022-08-27T02:14:12.909Z,21.21
2022-08-27T02:17:16.446Z,21.15
2022-08-27T02:20:20.439Z,21.11
2022-08-27T02:23:23.337Z,21.01
2022-08-27T02:26:27.716Z,20.89
2022-08-27T02:29:30.579Z,20.88
2022-08-27T02:32:33.126Z,20.89
2022-08-27T02:35:42.342Z,20.93
2022-08-27T02:38:44.930Z,20.90
2022-08-27T02:41:48.674Z,20.88
2022-08-27T02:44:51.208Z,20.88
2022-08-27T02:47:54.220Z,20.86
2022-08-27T02:50:56.793Z,20.85
2022-08-27T02:54:01.050Z,20.70
2022-08-27T02:57:04.729Z,20.54
2022-08-27T03:00:10.065Z,20.60
2022-08-27T03:03:12.630Z,20.62
2022-08-27T03:06:15.498Z,20.57
2022-08-27T03:09:18.025Z,20.47
2022-08-27T03:12:22.766Z,20.30
2022-08-27T03:15:27.444Z,20.19
2022-08-27T03:18:30.235Z,20.13
2022-08-27T03:21:34.103Z,20.17
2022-08-27T03:24:37.172Z,20.07
2022-08-27T03:27:42.751Z,19.97
2022-08-27T03:30:52.022Z,19.94
2022-08-27T03:33:58.273Z,19.92
2022-08-27T03:37:01.576Z,19.81
2022-08-27T03:40:05.516Z,19.81
2022-08-27T03:43:08.303Z,19.74
2022-08-27T03:46:10.984Z,19.70
2022-08-27T03:49:13.907Z,19.60
2022-08-27T03:52:17.169Z,19.64
2022-08-27T03:55:20.072Z,19.63
2022-08-27T03:58:22.669Z,19.61
2022-08-27T04:01:25.561Z,19.59
2022-08-27T04:04:28.590Z,19.48
2022-08-27T04:07:31.157Z,19.49
2022-08-27T04:10:35.039Z,19.47
2022-08-27T04:13:37.642Z,19.45
2022-08-27T04:16:41.555Z,19.48
2022-08-27T04:19:44.086Z,19.46
2022-08-27T04:22:46.886Z,19.44
2022-08-27T04:25:49.919Z,19.42
2022-08-27T04:28:52.742Z,19.46
2022-08-27T04:31:56.597Z,19.48
2022-08-27T04:35:00.134Z,19.51
2022-08-27T04:38:04.254Z,19.57
2022-08-27T04:41:26.524Z,19.66
2022-08-27T04:44:31.461Z,19.73
2022-08-27T04:47:34.723Z,19.79
2022-08-27T04:50:42.168Z,19.91
2022-08-27T04:53:45.087Z,20.02
2022-08-27T04:56:47.659Z,20.08
2022-08-27T04:59:50.893Z,20.09
2022-08-27T05:02:53.466Z,20.21
2022-08-27T05:06:01.305Z,20.39
2022-08-27T05:09:05.173Z,20.52
2022-08-27T05:12:08.704Z,20.64
2022-08-27T05:15:11.713Z,20.79
2022-08-27T05:18:15.031Z,20.95
2022-08-27T05:21:30.509Z,21.11
2022-08-27T05:27:36.133Z,21.48
2022-08-27T05:30:44.778Z,21.93
2022-08-27T05:33:52.300Z,22.31
2022-08-27T05:36:55.968Z,22.62
2022-08-27T05:39:58.646Z,22.94
2022-08-27T05:43:01.696Z,23.08
2022-08-27T05:46:06.461Z,23.08
2022-08-27T05:49:10.276Z,23.14
2022-08-27T05:52:13.634Z,23.21
2022-08-27T05:55:16.841Z,23.42
2022-08-27T05:58:37.683Z,23.51
2022-08-27T06:01:44.998Z,23.54
2022-08-27T06:04:48.790Z,23.67
2022-08-27T06:07:51.418Z,23.62
2022-08-27T06:10:54.204Z,23.50
2022-08-27T06:13:57.579Z,23.53
2022-08-27T06:17:00.978Z,23.59
2022-08-27T06:20:04.217Z,23.63
2022-08-27T06:23:07.293Z,23.57
2022-08-27T06:26:11.814Z,23.65
2022-08-27T06:29:14.895Z,23.63
2022-08-27T06:32:17.454Z,23.73
2022-08-27T06:35:20.331Z,23.91
2022-08-27T06:38:22.863Z,24.14
2022-08-27T06:41:27.372Z,24.14
2022-08-27T06:44:29.894Z,24.29
2022-08-27T06:47:32.991Z,24.40
2022-08-27T06:50:40.467Z,24.38
2022-08-27T06:53:44.935Z,24.57
2022-08-27T06:56:49.586Z,24.95
2022-08-27T06:59:52.485Z,25.29
2022-08-27T07:02:55.157Z,25.89
2022-08-27T07:06:05.352Z,26.30
2022-08-27T07:09:09.561Z,26.60
2022-08-27T07:12:12.711Z,27.13
2022-08-27T07:15:15.316Z,27.19
2022-08-27T07:18:18.292Z,26.94
2022-08-27T07:21:22.029Z,27.22
2022-08-27T07:24:24.865Z,28.24
2022-08-27T07:27:27.427Z,28.30
2022-08-27T07:30:30.357Z,28.52
2022-08-27T07:33:32.923Z,28.67
2022-08-27T07:36:35.862Z,28.83
2022-08-27T07:39:38.385Z,29.32
2022-08-27T07:43:00.769Z,30.10
2022-08-27T07:46:04.001Z,30.48
2022-08-27T07:49:06.879Z,31.23
2022-08-27T07:52:09.756Z,31.80
2022-08-27T07:55:13.838Z,32.37
2022-08-27T07:58:18.538Z,31.54
2022-08-27T08:01:24.100Z,31.90
2022-08-27T08:04:27.507Z,31.95
2022-08-27T08:07:30.052Z,33.63
2022-08-27T08:10:36.784Z,33.25
2022-08-27T08:13:39.741Z,32.98
2022-08-27T08:16:42.698Z,33.20
2022-08-27T08:20:02.489Z,34.60
2022-08-27T08:23:10.517Z,34.72
2022-08-27T08:26:13.372Z,34.89
2022-08-27T08:29:18.158Z,35.54
2022-08-27T08:32:21.507Z,35.57
2022-08-27T08:35:24.546Z,36.13
2022-08-27T08:38:28.377Z,35.41
2022-08-27T08:41:44.854Z,35.95
2022-08-27T08:44:49.999Z,35.02
2022-08-27T08:48:06.901Z,35.76
2022-08-27T08:51:34.315Z,36.20
2022-08-27T08:54:38.681Z,36.51
2022-08-27T08:57:49.714Z,36.68
2022-08-27T09:00:57.945Z,34.00
2022-08-27T09:04:04.172Z,36.96
2022-08-27T09:07:11.365Z,35.83
2022-08-27T09:10:35.204Z,37.83
2022-08-27T09:13:42.389Z,37.05
2022-08-27T09:16:44.966Z,36.07
2022-08-27T09:19:52.396Z,36.23
2022-08-27T09:23:06.936Z,35.66
2022-08-27T09:26:25.447Z,35.25
2022-08-27T09:29:29.242Z,34.63
2022-08-27T09:32:33.598Z,33.68
2022-08-27T09:35:42.587Z,34.42
2022-08-27T09:38:56.854Z,35.27
2022-08-27T09:42:03.412Z,35.56
2022-08-27T09:45:11.804Z,35.28
2022-08-27T09:48:18.739Z,35.71
2022-08-27T09:51:25.774Z,36.04
2022-08-27T09:54:34.802Z,36.34
2022-08-27T09:57:42.122Z,35.62
2022-08-27T10:00:46.298Z,35.10
2022-08-27T10:03:49.809Z,35.34
2022-08-27T10:06:53.128Z,35.79
2022-08-27T10:10:11.204Z,35.25
2022-08-27T10:13:21.089Z,35.43
2022-08-27T10:16:23.875Z,34.92
2022-08-27T10:19:32.314Z,36.38
2022-08-27T10:22:47.833Z,36.59
2022-08-27T10:26:00.357Z,35.72
2022-08-27T10:29:25.934Z,37.21
2022-08-27T10:32:41.712Z,37.98
2022-08-27T10:35:54.658Z,36.93
2022-08-27T10:39:20.285Z,36.90
2022-08-27T10:42:39.946Z,37.54
2022-08-27T10:46:01.689Z,36.80
2022-08-27T10:49:13.928Z,36.70
2022-08-27T10:52:42.078Z,37.32
2022-08-27T10:55:51.797Z,37.94
2022-08-27T10:59:17.560Z,37.76
2022-08-27T11:02:42.256Z,38.73
2022-08-27T11:05:49.800Z,38.49
2022-08-27T11:08:57.953Z,38.08
2022-08-27T11:12:19.164Z,37.03
2022-08-27T11:15:29.339Z,38.47
2022-08-27T11:19:19.638Z,38.14
2022-08-27T11:22:26.129Z,37.33
2022-08-27T11:25:51.005Z,39.07
2022-08-27T11:28:55.768Z,36.97
2022-08-27T11:32:10.394Z,37.90
2022-08-27T11:35:29.234Z,37.67
2022-08-27T11:38:55.256Z,38.14
2022-08-27T11:42:18.625Z,38.11
2022-08-27T11:45:34.912Z,36.75
2022-08-27T11:48:43.209Z,37.11
2022-08-27T11:51:45.917Z,36.37
2022-08-27T11:54:52.361Z,36.75
2022-08-27T11:58:27.496Z,37.26
2022-08-27T12:01:31.926Z,36.95
2022-08-27T12:04:38.060Z,35.93
2022-08-27T12:07:42.151Z,35.22
2022-08-27T12:11:03.777Z,34.91
2022-08-27T12:14:14.766Z,34.07
2022-08-27T12:17:22.434Z,34.28
2022-08-27T12:20:43.802Z,33.13
2022-08-27T12:23:51.102Z,33.32
2022-08-27T12:26:58.484Z,32.70
2022-08-27T12:30:19.937Z,31.91
2022-08-27T12:33:45.950Z,32.39
2022-08-27T12:36:50.408Z,32.70
2022-08-27T12:39:54.029Z,31.19
2022-08-27T12:43:09.011Z,31.96
2022-08-27T12:46:18.198Z,31.78
2022-08-27T12:49:38.214Z,31.97
2022-08-27T12:52:51.257Z,31.75
2022-08-27T12:56:19.380Z,31.43
2022-08-27T13:00:01.073Z,31.41
2022-08-27T13:03:07.140Z,31.47
2022-08-27T13:06:29.135Z,31.32
2022-08-27T13:09:34.713Z,31.00
2022-08-27T13:12:37.199Z,30.81
2022-08-27T13:15:46.795Z,30.95
2022-08-27T13:18:50.206Z,31.07
2022-08-27T13:21:54.436Z,30.51
2022-08-27T13:24:57.778Z,30.47
2022-08-27T13:28:10.434Z,30.42
2022-08-27T13:31:14.453Z,30.21
2022-08-27T13:34:22.736Z,30.26
2022-08-27T13:37:34.444Z,30.18
2022-08-27T13:40:50.771Z,30.04
2022-08-27T13:43:58.533Z,30.00
2022-08-27T13:47:04.831Z,30.34
2022-08-27T13:50:34.709Z,30.25
2022-08-27T13:54:06.738Z,30.20
2022-08-27T13:57:11.329Z,30.15
2022-08-27T14:00:18.745Z,30.37
2022-08-27T14:03:35.218Z,30.19
2022-08-27T14:06:45.975Z,30.18
2022-08-27T14:09:59.059Z,30.00
2022-08-27T14:13:04.947Z,30.04
2022-08-27T14:16:22.234Z,29.72
2022-08-27T14:19:35.093Z,29.85
2022-08-27T14:22:39.985Z,29.80
2022-08-27T14:25:42.632Z,29.50
2022-08-27T14:28:46.480Z,29.56
2022-08-27T14:31:49.079Z,29.62
2022-08-27T14:34:51.923Z,29.63
2022-08-27T14:37:54.805Z,29.59
2022-08-27T14:41:00.689Z,29.54
2022-08-27T14:44:03.746Z,29.42
2022-08-27T14:47:09.572Z,29.28
2022-08-27T14:50:14.199Z,29.28
2022-08-27T14:53:17.611Z,29.24
2022-08-27T14:56:20.997Z,29.18
2022-08-27T14:59:23.988Z,29.17
2022-08-27T15:02:26.588Z,29.13
2022-08-27T15:05:29.469Z,29.17
2022-08-27T15:08:32.350Z,29.16
2022-08-27T15:11:39.804Z,29.03
2022-08-27T15:14:45.570Z,29.01
2022-08-27T15:17:48.349Z,28.92
2022-08-27T15:20:50.977Z,28.87
2022-08-27T15:24:01.538Z,28.84
2022-08-27T15:27:04.436Z,28.90
2022-08-27T15:30:09.029Z,28.87
2022-08-27T15:33:11.693Z,28.84
2022-08-27T15:36:14.612Z,28.84
2022-08-27T15:39:17.293Z,28.71
2022-08-27T15:42:20.395Z,28.61
2022-08-27T15:45:27.363Z,28.64
2022-08-27T15:48:31.264Z,28.60
2022-08-27T15:51:34.176Z,28.61
2022-08-27T15:54:37.365Z,28.55
2022-08-27T15:57:40.256Z,28.45
2022-08-27T16:00:43.966Z,28.47
2022-08-27T16:03:46.956Z,28.36
2022-08-27T16:06:49.567Z,28.36
2022-08-27T16:09:52.444Z,28.32
2022-08-27T16:12:55.039Z,28.23
2022-08-27T16:15:58.072Z,28.22
2022-08-27T16:19:02.302Z,28.14
2022-08-27T16:22:07.040Z,28.02
2022-08-27T16:25:13.133Z,27.90
2022-08-27T16:28:18.560Z,27.84
2022-08-27T16:31:22.052Z,27.72
2022-08-27T16:34:26.730Z,27.81
2022-08-27T16:37:29.255Z,27.75
2022-08-27T16:40:34.325Z,27.76
2022-08-27T16:43:37.480Z,27.73
2022-08-27T16:46:40.521Z,27.65
2022-08-27T16:50:01.434Z,27.60
2022-08-27T17:00:42.902Z,27.40
2022-08-27T17:07:11.566Z,27.34
2022-08-27T17:10:14.702Z,27.25
2022-08-27T17:13:20.146Z,27.21
2022-08-27T17:16:26.145Z,27.14
2022-08-27T17:19:28.675Z,27.19
2022-08-27T17:22:31.469Z,27.13
2022-08-27T17:25:34.035Z,27.03
2022-08-27T17:28:41.528Z,26.90
2022-08-27T17:31:44.024Z,26.70
2022-08-27T17:34:46.886Z,26.48
2022-08-27T17:37:49.404Z,26.34
2022-08-27T17:40:53.758Z,26.24
2022-08-27T17:43:59.405Z,26.11
2022-08-27T17:47:04.789Z,26.00
2022-08-27T17:50:07.453Z,25.99
2022-08-27T17:53:10.312Z,25.96
2022-08-27T17:56:14.645Z,25.85
2022-08-27T17:59:17.411Z,25.78
2022-08-27T18:02:25.686Z,25.70
2022-08-27T18:05:28.855Z,25.66
2022-08-27T18:08:31.400Z,25.62
2022-08-27T18:11:34.497Z,25.51
2022-08-27T18:14:36.997Z,25.45
2022-08-27T18:17:39.857Z,25.36
2022-08-27T18:20:45.017Z,25.22
2022-08-27T18:23:48.366Z,25.23
2022-08-27T18:26:51.096Z,25.14
2022-08-27T18:29:56.382Z,25.13
2022-08-27T18:33:00.077Z,25.08
2022-08-27T18:36:04.160Z,24.97
2022-08-27T18:39:06.608Z,25.18
2022-08-27T18:42:09.620Z,25.25
2022-08-27T18:45:15.848Z,25.15
2022-08-27T18:48:21.735Z,25.04
2022-08-27T18:51:24.304Z,25.13
2022-08-27T18:54:27.950Z,25.08
2022-08-27T18:57:30.456Z,25.04
2022-08-27T19:00:33.257Z,25.05
2022-08-27T19:03:38.816Z,24.94
2022-08-27T19:06:41.862Z,24.89
2022-08-27T19:09:44.379Z,24.80
2022-08-27T19:12:47.901Z,24.74
2022-08-27T19:15:55.381Z,24.61
2022-08-27T19:18:58.221Z,24.64
2022-08-27T19:22:00.828Z,24.64
2022-08-27T19:25:09.752Z,24.58
2022-08-27T19:28:12.555Z,24.48
2022-08-27T19:31:16.013Z,24.34
2022-08-27T19:34:18.682Z,24.27
2022-08-27T19:37:24.585Z,24.25
2022-08-27T19:40:27.265Z,23.97
2022-08-27T19:43:30.632Z,23.97
2022-08-27T19:46:35.362Z,23.95
2022-08-27T19:49:40.229Z,23.87
2022-08-27T19:52:43.091Z,23.85
2022-08-27T19:55:46.176Z,23.71
2022-08-27T19:58:48.686Z,23.65
2022-08-27T20:01:52.869Z,23.63
2022-08-27T20:05:16.256Z,23.58
2022-08-27T20:08:19.417Z,23.63
2022-08-27T20:11:23.071Z,23.60
2022-08-27T20:14:25.646Z,23.58
2022-08-27T20:17:28.456Z,23.51
2022-08-27T20:20:32.394Z,23.44
2022-08-27T20:23:35.187Z,23.30
2022-08-27T20:26:38.014Z,23.17
2022-08-27T20:29:42.173Z,23.05
2022-08-27T20:32:46.813Z,22.87
2022-08-27T20:35:49.696Z,22.71
2022-08-27T20:38:53.218Z,22.31
2022-08-27T20:41:56.045Z,22.35
2022-08-27T20:44:58.620Z,22.34
2022-08-27T20:48:04.223Z,22.32
2022-08-27T20:51:06.907Z,22.40
2022-08-27T20:54:09.726Z,22.49
2022-08-27T20:57:12.741Z,22.42
2022-08-27T21:00:22.192Z,22.34
2022-08-27T21:03:25.350Z,22.33
2022-08-27T21:06:30.931Z,22.30
2022-08-27T21:09:36.253Z,22.35
2022-08-27T21:13:01.219Z,22.39
2022-08-27T21:16:06.183Z,22.50
2022-08-27T21:19:09.052Z,22.60
2022-08-27T21:22:11.565Z,22.71
2022-08-27T21:25:14.603Z,22.74
2022-08-27T21:28:17.343Z,22.78
2022-08-27T21:31:20.179Z,22.84
2022-08-27T21:34:22.798Z,22.91
2022-08-27T21:37:25.639Z,22.94
2022-08-27T21:40:29.653Z,23.05
2022-08-27T21:43:32.703Z,23.11
2022-08-27T21:46:35.253Z,23.10
2022-08-27T21:49:39.652Z,22.89
2022-08-27T21:52:42.198Z,22.86
2022-08-27T21:55:45.982Z,22.86
2022-08-27T21:58:48.560Z,22.90
2022-08-27T22:02:00.201Z,23.07
2022-08-27T22:05:04.060Z,23.07
2022-08-27T22:08:06.845Z,23.17
2022-08-27T22:11:10.860Z,23.18
2022-08-27T22:14:13.604Z,23.13
2022-08-27T22:17:16.719Z,22.96
2022-08-27T22:20:20.204Z,22.63
2022-08-27T22:23:23.378Z,22.05
2022-08-27T22:26:25.917Z,21.62
2022-08-27T22:29:28.686Z,21.37
2022-08-27T22:32:33.469Z,21.37
2022-08-27T22:35:36.242Z,21.18
2022-08-27T22:38:38.738Z,21.08
2022-08-27T22:41:45.290Z,21.05
2022-08-27T22:44:51.201Z,20.91
2022-08-27T22:47:54.733Z,20.80
2022-08-27T22:50:57.213Z,20.64
2022-08-27T22:54:00.032Z,20.46
2022-08-27T22:57:02.529Z,20.30
2022-08-27T23:00:11.567Z,20.16
2022-08-27T23:03:14.879Z,20.03
2022-08-27T23:06:17.637Z,19.94
2022-08-27T23:09:20.122Z,19.94
2022-08-27T23:12:23.077Z,19.83
2022-08-27T23:15:27.684Z,19.50
2022-08-27T23:18:30.886Z,19.34
2022-08-27T23:21:33.388Z,19.16
2022-08-27T23:24:59.139Z,19.21
2022-08-27T23:28:06.261Z,19.20
2022-08-27T23:31:09.386Z,19.18
2022-08-27T23:34:11.921Z,19.07
2022-08-27T23:37:14.719Z,18.96
2022-08-27T23:40:17.750Z,18.74
2022-08-27T23:43:20.992Z,18.66
2022-08-27T23:46:23.922Z,18.60
2022-08-27T23:49:26.776Z,18.55
2022-08-27T23:52:29.296Z,18.39
2022-08-27T23:55:33.807Z,18.43
2022-08-27T23:58:36.355Z,18.43
